Time;durP1;ratioP1;P1;durP2;ratioP2;P2;SDS_P1;SDS_P2;PMS_P1;PMS_P2;Temp;Humidity;BMP_temperature;BMP_pressure;BME280_temperature;BME280_humidity;BME280_pressure;Samples;Min_cycle;Max_cycle;Signal;HPM_P1;HPM_P2
2023/04/27 11:40:34;;;;;;;;;;;19.80;82.30;;;;;;6274037;22;19929;-64
2023/04/27 11:43:04;;;;;;;;;;;19.80;82.30;;;;;;6277161;22;19964;-64
2023/04/27 11:45:30;;;;;;;;;;;19.80;82.30;;;;;;6251759;22;19904;-64
2023/04/27 11:47:58;;;;;;;;;;;19.70;82.50;;;;;;6277448;22;19978;-64
2023/04/27 11:50:25;;;;;;;;;;;19.70;82.50;;;;;;6276303;22;19931;-64
2023/04/27 11:52:52;;;;;;;;;;;19.70;82.60;;;;;;6276381;22;19976;-65
2023/04/27 11:55:23;;;;;;;;;;;19.70;82.70;;;;;;6277585;22;20318;-64
2023/04/27 11:57:55;;;;;;;;;;;19.70;82.70;;;;;;6277646;22;19935;-64
2023/04/27 12:00:21;;;;;;;;;;;19.70;82.70;;;;;;6277268;22;19926;-64
2023/04/27 12:02:48;;;;;;;;;;;19.70;82.40;;;;;;6277398;22;19930;-64
2023/04/27 12:05:15;;;;;;;;;;;19.70;82.30;;;;;;6277268;22;19957;-64
2023/04/27 12:07:42;;;;;;;;;;;19.70;82.20;;;;;;6277122;22;19903;-64
2023/04/27 12:10:09;;;;;;;;;;;19.60;82.30;;;;;;6276894;22;19916;-64
2023/04/27 12:12:36;;;;;;;;;;;19.60;82.20;;;;;;6276911;22;19911;-64
2023/04/27 12:15:02;;;;;;;;;;;19.60;82.10;;;;;;6276935;22;19903;-64
2023/04/27 12:17:29;;;;;;;;;;;19.60;82.10;;;;;;6277311;22;19949;-64
2023/04/27 12:19:56;;;;;;;;;;;19.60;82.00;;;;;;6276729;22;19903;-64
2023/04/27 12:22:23;;;;;;;;;;;19.50;82.00;;;;;;6277216;22;19903;-64
2023/04/27 12:24:50;;;;;;;;;;;19.50;81.90;;;;;;6277096;22;19923;-64
2023/04/27 12:27:17;;;;;;;;;;;19.50;81.90;;;;;;6276916;22;19914;-64
2023/04/27 12:29:43;;;;;;;;;;;19.50;82.00;;;;;;6276616;22;19907;-64
2023/04/27 12:32:10;;;;;;;;;;;19.50;82.00;;;;;;6276497;22;19930;-63
2023/04/27 12:34:38;;;;;;;;;;;19.40;82.00;;;;;;6277097;22;19911;-64
2023/04/27 12:37:05;;;;;;;;;;;19.40;82.00;;;;;;6276343;22;19903;-64
2023/04/27 12:39:32;;;;;;;;;;;19.30;82.00;;;;;;6271304;22;19990;-64
2023/04/27 12:41:58;;;;;;;;;;;19.40;81.90;;;;;;6245846;23;19931;-64
2023/04/27 12:44:25;;;;;;;;;;;19.30;82.00;;;;;;6245779;23;19932;-64
2023/04/27 12:46:52;;;;;;;;;;;19.30;82.10;;;;;;6245943;22;20251;-64
2023/04/27 12:49:19;;;;;;;;;;;19.30;81.90;;;;;;6246072;23;19904;-64
2023/04/27 12:51:46;;;;;;;;;;;19.30;82.00;;;;;;6246012;23;19910;-64
2023/04/27 12:54:13;;;;;;;;;;;19.30;82.10;;;;;;6246094;23;19911;-64
2023/04/27 12:56:40;;;;;;;;;;;19.20;82.10;;;;;;6246102;22;20345;-64
2023/04/27 12:59:07;;;;;;;;;;;19.30;82.00;;;;;;6246101;23;19907;-64
2023/04/27 13:01:34;;;;;;;;;;;19.30;82.10;;;;;;6244679;23;19957;-64
2023/04/27 13:04:01;;;;;;;;;;;19.20;82.10;;;;;;6245365;23;19949;-64
2023/04/27 13:06:28;;;;;;;;;;;19.20;82.10;;;;;;6246135;22;19982;-64
2023/04/27 13:08:55;;;;;;;;;;;19.20;81.90;;;;;;6246019;23;20286;-64
2023/04/27 13:11:22;;;;;;;;;;;19.20;82.00;;;;;;6245754;23;19923;-64
2023/04/27 13:13:49;;;;;;;;;;;19.20;82.20;;;;;;6246245;23;20278;-64
2023/04/27 13:16:18;;;;;;;;;;;19.10;82.40;;;;;;6245911;23;19904;-64
2023/04/27 13:18:49;;;;;;;;;;;19.10;82.60;;;;;;6245243;22;19911;-64
2023/04/27 13:21:16;;;;;;;;;;;19.10;82.70;;;;;;6245534;23;19911;-64
2023/04/27 13:23:43;;;;;;;;;;;19.00;82.80;;;;;;6246026;23;19904;-64
2023/04/27 13:26:10;;;;;;;;;;;18.90;83.10;;;;;;6245731;23;19903;-64
2023/04/27 13:28:37;;;;;;;;;;;18.80;83.30;;;;;;6245281;22;19904;-64
2023/04/27 13:31:03;;;;;;;;;;;18.80;83.60;;;;;;6245099;23;19958;-64
2023/04/27 13:33:31;;;;;;;;;;;18.80;83.80;;;;;;6245479;23;19911;-64
2023/04/27 13:36:01;;;;;;;;;;;18.80;84.00;;;;;;6245446;23;19904;-64
2023/04/27 13:38:27;;;;;;;;;;;18.80;84.20;;;;;;6218466;23;20250;-64
2023/04/27 13:40:54;;;;;;;;;;;18.80;84.30;;;;;;6245164;22;20034;-64
2023/04/27 13:43:21;;;;;;;;;;;18.70;84.50;;;;;;6245477;23;19907;-64
2023/04/27 13:45:49;;;;;;;;;;;18.70;84.60;;;;;;6245865;23;19904;-64
2023/04/27 13:48:16;;;;;;;;;;;18.70;84.80;;;;;;6245037;22;19986;-64
2023/04/27 13:50:43;;;;;;;;;;;18.60;84.90;;;;;;6245912;23;19912;-64
2023/04/27 13:53:10;;;;;;;;;;;18.60;85.10;;;;;;6245652;23;19904;-64
2023/04/27 13:55:37;;;;;;;;;;;18.50;85.30;;;;;;6245498;23;19947;-64
2023/04/27 13:58:04;;;;;;;;;;;18.50;85.40;;;;;;6245620;22;19982;-64
2023/04/27 14:00:32;;;;;;;;;;;18.50;85.40;;;;;;6245529;23;19944;-64
2023/04/27 14:02:59;;;;;;;;;;;18.40;85.40;;;;;;6218927;23;19987;-64
2023/04/27 14:05:26;;;;;;;;;;;18.40;85.50;;;;;;6245352;23;19904;-64
2023/04/27 14:07:53;;;;;;;;;;;18.40;85.60;;;;;;6245115;22;19903;-64
2023/04/27 14:10:20;;;;;;;;;;;18.40;85.60;;;;;;6245499;23;19998;-64
2023/04/27 14:12:47;;;;;;;;;;;18.40;85.70;;;;;;6245103;23;19919;-64
2023/04/27 14:15:14;;;;;;;;;;;18.40;85.70;;;;;;6245279;23;19908;-64
2023/04/27 14:17:40;;;;;;;;;;;18.40;85.70;;;;;;6245149;22;19903;-64
2023/04/27 14:20:07;;;;;;;;;;;18.40;85.70;;;;;;6245662;23;19950;-64
2023/04/27 14:22:35;;;;;;;;;;;18.30;85.80;;;;;;6245119;23;19911;-64
2023/04/27 14:25:01;;;;;;;;;;;18.30;86.00;;;;;;6245070;23;19980;-64
2023/04/27 14:27:28;;;;;;;;;;;18.20;86.20;;;;;;6245239;22;19990;-64
2023/04/27 14:29:55;;;;;;;;;;;18.20;86.30;;;;;;6245203;23;19982;-64
2023/04/27 14:32:22;;;;;;;;;;;18.20;86.30;;;;;;6245455;23;19912;-64
2023/04/27 14:34:48;;;;;;;;;;;18.20;86.40;;;;;;6244987;23;19978;-64
2023/04/27 14:37:15;;;;;;;;;;;18.20;86.70;;;;;;6246848;22;19908;-64
2023/04/27 14:39:42;;;;;;;;;;;18.10;86.80;;;;;;6247533;22;19916;-64
2023/04/27 14:42:08;;;;;;;;;;;18.10;87.00;;;;;;6247851;23;20237;-64
2023/04/27 14:44:35;;;;;;;;;;;18.00;87.20;;;;;;6247756;23;19903;-64
2023/04/27 14:47:02;;;;;;;;;;;18.10;87.30;;;;;;6246137;22;20334;-64
2023/04/27 14:49:29;;;;;;;;;;;18.10;87.10;;;;;;6243307;23;20557;-66
2023/04/27 14:51:57;;;;;;;;;;;18.00;87.20;;;;;;6244211;23;19904;-66
2023/04/27 14:54:24;;;;;;;;;;;17.90;87.40;;;;;;6244721;23;20325;-66
2023/04/27 14:56:51;;;;;;;;;;;17.90;87.40;;;;;;6244031;22;19914;-65
2023/04/27 14:59:17;;;;;;;;;;;17.80;87.50;;;;;;6243433;23;19904;-66
2023/04/27 15:01:44;;;;;;;;;;;17.90;87.70;;;;;;6244160;23;20246;-66
2023/04/27 15:04:11;;;;;;;;;;;17.80;87.60;;;;;;6241952;23;19991;-67
2023/04/27 15:06:38;;;;;;;;;;;17.80;87.80;;;;;;6244005;22;19904;-66
2023/04/27 15:09:05;;;;;;;;;;;17.80;87.90;;;;;;6243580;23;20388;-65
2023/04/27 15:11:31;;;;;;;;;;;17.80;87.90;;;;;;6243333;23;20000;-66
2023/04/27 15:13:58;;;;;;;;;;;17.70;87.90;;;;;;6243261;23;20009;-65
2023/04/27 15:16:25;;;;;;;;;;;17.80;87.90;;;;;;6242975;22;19990;-65
2023/04/27 15:18:52;;;;;;;;;;;17.70;87.90;;;;;;6243294;23;19965;-65
2023/04/27 15:21:18;;;;;;;;;;;17.70;88.10;;;;;;6243921;23;19939;-64
2023/04/27 15:23:45;;;;;;;;;;;17.70;88.20;;;;;;6243601;23;19978;-64
2023/04/27 15:26:12;;;;;;;;;;;17.70;88.20;;;;;;6243245;23;19922;-64
2023/04/27 15:28:38;;;;;;;;;;;17.60;88.30;;;;;;6243483;22;19908;-64
2023/04/27 15:31:05;;;;;;;;;;;17.60;88.30;;;;;;6243411;23;19915;-64
2023/04/27 15:33:32;;;;;;;;;;;17.60;88.40;;;;;;6243394;23;20232;-64
2023/04/27 15:35:59;;;;;;;;;;;17.60;88.60;;;;;;6242661;23;19904;-64
2023/04/27 15:38:25;;;;;;;;;;;17.50;88.80;;;;;;6244345;22;19931;-64
2023/04/27 15:40:53;;;;;;;;;;;17.50;88.90;;;;;;6103752;22;3319138;-64
2023/04/27 15:43:20;;;;;;;;;;;17.50;89.00;;;;;;6248053;23;19911;-64
2023/04/27 15:45:47;;;;;;;;;;;17.50;89.10;;;;;;6247973;23;19958;-64
2023/04/27 15:48:13;;;;;;;;;;;17.50;89.30;;;;;;6246959;22;19910;-64
2023/04/27 15:50:40;;;;;;;;;;;17.50;89.30;;;;;;6246793;23;19919;-64
2023/04/27 15:53:07;;;;;;;;;;;17.40;89.40;;;;;;6246740;23;19953;-64
2023/04/27 15:55:34;;;;;;;;;;;17.40;89.40;;;;;;6246419;23;20415;-64
2023/04/27 15:58:01;;;;;;;;;;;17.50;89.40;;;;;;6246181;22;19911;-64
2023/04/27 16:00:27;;;;;;;;;;;17.50;89.30;;;;;;6246049;23;19904;-64
2023/04/27 16:02:54;;;;;;;;;;;17.50;89.30;;;;;;6246960;23;19904;-63
2023/04/27 16:05:21;;;;;;;;;;;17.60;89.20;;;;;;6246745;23;19991;-64
2023/04/27 16:07:47;;;;;;;;;;;17.50;89.30;;;;;;6245980;22;20208;-64
2023/04/27 16:10:14;;;;;;;;;;;17.40;89.20;;;;;;6246428;23;19918;-64
2023/04/27 16:12:41;;;;;;;;;;;17.40;89.20;;;;;;6246789;23;19907;-64
2023/04/27 16:15:08;;;;;;;;;;;17.40;89.20;;;;;;6246725;23;19979;-64
2023/04/27 16:17:35;;;;;;;;;;;17.40;89.10;;;;;;6246312;22;19963;-64
2023/04/27 16:20:05;;;;;;;;;;;17.30;89.10;;;;;;6246553;23;20331;-64
2023/04/27 16:22:32;;;;;;;;;;;17.30;89.10;;;;;;6246469;23;20378;-64
2023/04/27 16:24:59;;;;;;;;;;;17.30;89.10;;;;;;6246130;23;20282;-64
2023/04/27 16:27:26;;;;;;;;;;;17.20;89.10;;;;;;6246370;22;19950;-64
2023/04/27 16:29:53;;;;;;;;;;;17.20;89.30;;;;;;6246269;23;19908;-64
2023/04/27 16:32:19;;;;;;;;;;;17.20;89.40;;;;;;6245988;23;19934;-64
2023/04/27 16:34:46;;;;;;;;;;;17.20;89.50;;;;;;6246249;23;20263;-64
2023/04/27 16:37:13;;;;;;;;;;;17.20;89.50;;;;;;6246195;22;19935;-64
2023/04/27 16:39:40;;;;;;;;;;;17.20;89.60;;;;;;6246026;22;19958;-64
2023/04/27 16:42:06;;;;;;;;;;;17.20;89.30;;;;;;6246334;23;20231;-64
2023/04/27 16:44:33;;;;;;;;;;;17.20;89.40;;;;;;6246557;23;19907;-64
2023/04/27 16:47:00;;;;;;;;;;;17.10;89.50;;;;;;6245926;22;20270;-64
2023/04/27 16:49:27;;;;;;;;;;;17.10;89.60;;;;;;6246112;23;19949;-64
2023/04/27 16:51:55;;;;;;;;;;;17.00;89.60;;;;;;6246203;23;20334;-64
2023/04/27 16:54:21;;;;;;;;;;;17.00;89.60;;;;;;6245832;23;19911;-64
2023/04/27 16:56:49;;;;;;;;;;;17.00;89.70;;;;;;6245567;22;19931;-63
2023/04/27 16:59:15;;;;;;;;;;;17.00;89.70;;;;;;6245894;23;19903;-64
2023/04/27 17:01:42;;;;;;;;;;;17.00;89.50;;;;;;6246032;23;19907;-64
2023/04/27 17:04:09;;;;;;;;;;;17.00;89.60;;;;;;6246014;23;20251;-64
2023/04/27 17:06:36;;;;;;;;;;;17.00;89.80;;;;;;6245997;22;20311;-64
2023/04/27 17:09:03;;;;;;;;;;;17.00;89.90;;;;;;6246120;23;19974;-64
2023/04/27 17:11:30;;;;;;;;;;;17.00;89.60;;;;;;6246482;23;19915;-63
2023/04/27 17:13:57;;;;;;;;;;;17.00;89.70;;;;;;6246137;23;19954;-63
2023/04/27 17:16:25;;;;;;;;;;;17.00;89.80;;;;;;6245485;23;19918;-64
2023/04/27 17:18:54;;;;;;;;;;;17.00;89.80;;;;;;6219684;23;19903;-64
2023/04/27 17:21:21;;;;;;;;;;;17.00;89.90;;;;;;6219671;23;19927;-64
2023/04/27 17:23:50;;;;;;;;;;;17.00;90.00;;;;;;6245326;23;19942;-64
2023/04/27 17:26:18;;;;;;;;;;;17.00;90.00;;;;;;6245417;23;19977;-64
2023/04/27 17:28:46;;;;;;;;;;;17.00;90.10;;;;;;6245702;22;19910;-64
2023/04/27 17:31:13;;;;;;;;;;;17.00;90.00;;;;;;6245750;23;19918;-64
2023/04/27 17:33:39;;;;;;;;;;;17.00;90.10;;;;;;6245957;23;19931;-64
2023/04/27 17:36:06;;;;;;;;;;;17.00;90.10;;;;;;6246055;23;19958;-64
2023/04/27 17:38:33;;;;;;;;;;;16.90;89.90;;;;;;6245389;22;19908;-64
2023/04/27 17:41:00;;;;;;;;;;;16.80;89.90;;;;;;6268873;22;20230;-63
2023/04/27 17:43:26;;;;;;;;;;;16.80;90.00;;;;;;6275814;22;19907;-64
2023/04/27 17:45:53;;;;;;;;;;;16.80;90.10;;;;;;6275700;22;20330;-64
2023/04/27 17:48:20;;;;;;;;;;;16.80;90.20;;;;;;6275408;22;19907;-64
2023/04/27 17:50:46;;;;;;;;;;;16.80;90.40;;;;;;6276559;22;19995;-64
2023/04/27 17:53:14;;;;;;;;;;;16.80;90.10;;;;;;6275915;22;19953;-64
2023/04/27 17:55:44;;;;;;;;;;;16.80;90.00;;;;;;6276143;22;20314;-64
2023/04/27 17:58:11;;;;;;;;;;;16.80;90.00;;;;;;6275240;22;19910;-64
2023/04/27 18:00:37;;;;;;;;;;;16.80;90.00;;;;;;6276100;22;19923;-64
2023/04/27 18:03:04;;;;;;;;;;;16.80;90.10;;;;;;6276157;22;19903;-64
2023/04/27 18:05:31;;;;;;;;;;;16.70;90.30;;;;;;6276021;22;19911;-64
2023/04/27 18:07:58;;;;;;;;;;;16.70;90.30;;;;;;6276007;22;20239;-64
2023/04/27 18:10:24;;;;;;;;;;;16.70;90.20;;;;;;6275246;22;19915;-64
2023/04/27 18:12:51;;;;;;;;;;;16.70;90.10;;;;;;6275953;22;19957;-64
2023/04/27 18:15:18;;;;;;;;;;;16.70;90.10;;;;;;6276173;22;19957;-64
2023/04/27 18:17:45;;;;;;;;;;;16.70;90.20;;;;;;6275804;22;19935;-64
2023/04/27 18:20:14;;;;;;;;;;;16.60;90.10;;;;;;6275465;22;19990;-64
2023/04/27 18:22:40;;;;;;;;;;;16.60;90.10;;;;;;6275621;22;19903;-64
2023/04/27 18:25:08;;;;;;;;;;;16.60;90.20;;;;;;6276187;22;20323;-64
2023/04/27 18:27:36;;;;;;;;;;;16.60;90.30;;;;;;6275611;22;19978;-64
2023/04/27 18:30:04;;;;;;;;;;;16.50;90.40;;;;;;6275778;22;19911;-63
2023/04/27 18:32:30;;;;;;;;;;;16.60;90.40;;;;;;6275755;22;19927;-64
2023/04/27 18:34:57;;;;;;;;;;;16.50;90.50;;;;;;6276111;22;19903;-64
2023/04/27 18:37:24;;;;;;;;;;;16.60;90.40;;;;;;6276140;22;19903;-64
2023/04/27 18:39:51;;;;;;;;;;;16.60;90.40;;;;;;6274811;22;19911;-64
2023/04/27 18:42:18;;;;;;;;;;;16.60;90.40;;;;;;6275886;22;19903;-64
2023/04/27 18:44:46;;;;;;;;;;;16.70;90.20;;;;;;6275769;22;19914;-64
2023/04/27 18:47:13;;;;;;;;;;;16.70;90.10;;;;;;6275514;22;19907;-64
2023/04/27 18:49:39;;;;;;;;;;;16.60;90.10;;;;;;6275513;22;19953;-64
2023/04/27 18:52:10;;;;;;;;;;;16.60;90.20;;;;;;6275935;22;20285;-64
2023/04/27 18:54:37;;;;;;;;;;;16.60;90.40;;;;;;6276053;22;19903;-64
2023/04/27 18:57:04;;;;;;;;;;;16.50;90.40;;;;;;6275882;22;19903;-64
2023/04/27 18:59:31;;;;;;;;;;;16.50;90.40;;;;;;6273657;22;19908;-64
2023/04/27 19:01:58;;;;;;;;;;;16.50;90.50;;;;;;6275473;22;19911;-64
2023/04/27 19:04:24;;;;;;;;;;;16.50;90.50;;;;;;6274861;22;20318;-64
2023/04/27 19:06:51;;;;;;;;;;;16.40;90.50;;;;;;6275618;22;19904;-64
2023/04/27 19:09:18;;;;;;;;;;;16.30;90.60;;;;;;6275250;22;20261;-64
2023/04/27 19:11:45;;;;;;;;;;;16.30;90.60;;;;;;6275636;22;20128;-64
2023/04/27 19:14:11;;;;;;;;;;;16.30;90.60;;;;;;6275494;22;19907;-64
2023/04/27 19:16:38;;;;;;;;;;;16.30;90.60;;;;;;6275561;22;19910;-64
2023/04/27 19:19:05;;;;;;;;;;;16.30;90.60;;;;;;6275496;22;19903;-64
2023/04/27 19:21:31;;;;;;;;;;;16.30;90.70;;;;;;6274935;22;19910;-65
2023/04/27 19:23:58;;;;;;;;;;;16.30;90.70;;;;;;6277258;22;19917;-65
2023/04/27 19:26:25;;;;;;;;;;;16.30;90.70;;;;;;6277586;22;19910;-64
2023/04/27 19:28:52;;;;;;;;;;;16.30;90.70;;;;;;6277022;22;20254;-64
2023/04/27 19:31:18;;;;;;;;;;;16.30;90.70;;;;;;6276646;22;19966;-64
2023/04/27 19:33:46;;;;;;;;;;;16.30;90.70;;;;;;6277783;22;19911;-64
2023/04/27 19:36:12;;;;;;;;;;;16.20;90.60;;;;;;6277518;22;19908;-64
2023/04/27 19:38:39;;;;;;;;;;;16.20;90.60;;;;;;6277741;22;19907;-64
2023/04/27 19:41:06;;;;;;;;;;;16.20;90.80;;;;;;6249920;22;19915;-64
2023/04/27 19:43:33;;;;;;;;;;;16.20;90.90;;;;;;6277752;22;19930;-64
2023/04/27 19:46:02;;;;;;;;;;;16.20;90.80;;;;;;6277245;22;19918;-64
2023/04/27 19:48:29;;;;;;;;;;;16.20;90.60;;;;;;6277350;22;19911;-64
2023/04/27 19:50:56;;;;;;;;;;;16.20;90.60;;;;;;6277265;22;19914;-64
2023/04/27 19:53:22;;;;;;;;;;;16.20;90.70;;;;;;6277620;22;19907;-64
2023/04/27 19:55:50;;;;;;;;;;;16.20;90.70;;;;;;6276954;22;20216;-65
2023/04/27 19:58:16;;;;;;;;;;;16.20;91.00;;;;;;6277632;22;19935;-64
2023/04/27 20:00:43;;;;;;;;;;;16.20;91.30;;;;;;6277276;22;20283;-64
2023/04/27 20:03:11;;;;;;;;;;;16.20;91.40;;;;;;6277345;22;19931;-64
2023/04/27 20:05:38;;;;;;;;;;;16.20;91.50;;;;;;6277695;22;20010;-64
2023/04/27 20:08:05;;;;;;;;;;;16.20;91.50;;;;;;6277753;22;19914;-66
2023/04/27 20:10:32;;;;;;;;;;;16.20;91.70;;;;;;6276383;22;19915;-64
2023/04/27 20:12:59;;;;;;;;;;;16.30;91.40;;;;;;6276914;22;19910;-64
2023/04/27 20:15:26;;;;;;;;;;;16.20;91.30;;;;;;6277014;22;19903;-64
2023/04/27 20:17:53;;;;;;;;;;;16.20;91.30;;;;;;6276821;22;19903;-66
2023/04/27 20:20:19;;;;;;;;;;;16.20;91.30;;;;;;6276932;22;19960;-66
2023/04/27 20:22:46;;;;;;;;;;;16.10;91.20;;;;;;6277218;22;19903;-66
2023/04/27 20:25:13;;;;;;;;;;;16.10;91.20;;;;;;6277176;22;19904;-64
2023/04/27 20:27:40;;;;;;;;;;;16.10;91.20;;;;;;6276575;22;19903;-66
2023/04/27 20:30:07;;;;;;;;;;;16.00;91.10;;;;;;6276956;22;19918;-64
2023/04/27 20:32:33;;;;;;;;;;;15.90;91.20;;;;;;6276547;22;19904;-64
2023/04/27 20:35:01;;;;;;;;;;;16.00;91.40;;;;;;6249783;22;19908;-66
2023/04/27 20:37:27;;;;;;;;;;;16.00;91.50;;;;;;6276567;22;19907;-66
2023/04/27 20:39:54;;;;;;;;;;;16.00;91.60;;;;;;6276341;22;19911;-66
2023/04/27 20:42:21;;;;;;;;;;;16.00;91.60;;;;;;6276882;22;20219;-66
2023/04/27 20:44:48;;;;;;;;;;;16.00;91.70;;;;;;6276601;22;20280;-66
2023/04/27 20:47:15;;;;;;;;;;;16.00;91.80;;;;;;6277337;22;19903;-66
2023/04/27 20:49:41;;;;;;;;;;;16.00;91.80;;;;;;6276368;22;19978;-64
2023/04/27 20:52:08;;;;;;;;;;;16.00;91.80;;;;;;6276670;22;19911;-66
2023/04/27 20:54:35;;;;;;;;;;;16.00;91.80;;;;;;6276747;22;19910;-66
2023/04/27 20:57:07;;;;;;;;;;;16.10;91.80;;;;;;6276618;22;19910;-67
2023/04/27 20:59:33;;;;;;;;;;;16.10;91.70;;;;;;6276304;22;19923;-66
2023/04/27 21:02:00;;;;;;;;;;;16.00;91.60;;;;;;6277066;22;19914;-66
2023/04/27 21:04:27;;;;;;;;;;;16.00;91.60;;;;;;6276788;22;19941;-66
2023/04/27 21:06:54;;;;;;;;;;;16.10;91.70;;;;;;6276419;22;19938;-66
2023/04/27 21:09:20;;;;;;;;;;;16.10;91.60;;;;;;6276264;22;19942;-66
2023/04/27 21:11:47;;;;;;;;;;;16.10;91.50;;;;;;6276363;22;19949;-66
2023/04/27 21:14:14;;;;;;;;;;;16.10;91.40;;;;;;6276551;22;19903;-66
2023/04/27 21:16:40;;;;;;;;;;;16.20;91.40;;;;;;6276464;22;19969;-66
2023/04/27 21:19:13;;;;;;;;;;;16.20;91.50;;;;;;6276046;22;19903;-66
2023/04/27 21:21:40;;;;;;;;;;;16.20;91.60;;;;;;6276220;22;20276;-66
2023/04/27 21:24:07;;;;;;;;;;;16.20;91.60;;;;;;6276659;22;20234;-66
2023/04/27 21:26:34;;;;;;;;;;;16.20;91.60;;;;;;6276465;22;19910;-66
2023/04/27 21:29:04;;;;;;;;;;;16.30;91.70;;;;;;6276394;22;19973;-66
2023/04/27 21:31:31;;;;;;;;;;;16.30;91.70;;;;;;6275853;22;19919;-66
2023/04/27 21:33:58;;;;;;;;;;;16.30;91.60;;;;;;6275583;22;20238;-65
2023/04/27 21:36:24;;;;;;;;;;;16.30;91.70;;;;;;6276221;22;19918;-65
2023/04/27 21:38:51;;;;;;;;;;;16.40;91.60;;;;;;6275954;22;19925;-65
2023/04/27 21:41:18;;;;;;;;;;;16.40;91.60;;;;;;6276202;22;19915;-65
2023/04/27 21:43:45;;;;;;;;;;;16.40;91.40;;;;;;6276360;22;20319;-65
2023/04/27 21:46:11;;;;;;;;;;;16.50;91.40;;;;;;6275775;22;19915;-65
2023/04/27 21:48:38;;;;;;;;;;;16.50;91.40;;;;;;6275981;22;19929;-65
2023/04/27 21:51:05;;;;;;;;;;;16.50;91.40;;;;;;6275923;22;19951;-65
2023/04/27 21:53:31;;;;;;;;;;;16.60;91.30;;;;;;6275850;22;19983;-65
2023/04/27 21:55:58;;;;;;;;;;;16.70;91.30;;;;;;6276160;22;19992;-65
2023/04/27 21:58:25;;;;;;;;;;;16.70;91.30;;;;;;6275612;22;19969;-65
2023/04/27 22:00:52;;;;;;;;;;;16.70;91.20;;;;;;6275443;22;19907;-65
2023/04/27 22:03:18;;;;;;;;;;;16.80;90.90;;;;;;6275518;22;19910;-65
2023/04/27 22:05:47;;;;;;;;;;;16.80;90.80;;;;;;6275503;22;19912;-65
2023/04/27 22:08:15;;;;;;;;;;;16.80;90.90;;;;;;6276012;22;19910;-65
2023/04/27 22:10:43;;;;;;;;;;;16.90;90.90;;;;;;6275206;22;19985;-65
2023/04/27 22:13:09;;;;;;;;;;;16.90;90.80;;;;;;6275557;22;19907;-65
2023/04/27 22:15:36;;;;;;;;;;;17.00;90.70;;;;;;6275879;22;19910;-65
2023/04/27 22:18:05;;;;;;;;;;;17.00;90.60;;;;;;6275486;22;20291;-65
2023/04/27 22:20:32;;;;;;;;;;;17.00;90.30;;;;;;6275315;22;20318;-65
2023/04/27 22:22:59;;;;;;;;;;;17.10;90.30;;;;;;6275687;22;19957;-65
2023/04/27 22:25:26;;;;;;;;;;;17.20;90.20;;;;;;6275360;22;19978;-65
2023/04/27 22:27:53;;;;;;;;;;;17.20;90.20;;;;;;6275434;22;19910;-65
2023/04/27 22:30:20;;;;;;;;;;;17.20;90.10;;;;;;6276104;22;19911;-65
2023/04/27 22:32:46;;;;;;;;;;;17.20;90.20;;;;;;6276047;22;20234;-65
2023/04/27 22:35:14;;;;;;;;;;;17.30;90.10;;;;;;6248674;22;19910;-65
2023/04/27 22:37:43;;;;;;;;;;;17.30;89.70;;;;;;6275700;22;19904;-65
2023/04/27 22:40:10;;;;;;;;;;;17.30;89.50;;;;;;6249387;22;20289;-65
2023/04/27 22:42:37;;;;;;;;;;;17.40;89.60;;;;;;6275961;22;19957;-65
2023/04/27 22:45:04;;;;;;;;;;;17.40;89.30;;;;;;6275836;22;19903;-65
2023/04/27 22:47:31;;;;;;;;;;;17.50;89.30;;;;;;6275660;22;20261;-65
2023/04/27 22:50:00;;;;;;;;;;;17.50;89.50;;;;;;6275599;22;19911;-65
2023/04/27 22:52:26;;;;;;;;;;;17.50;89.50;;;;;;6275571;22;20322;-66
2023/04/27 22:54:53;;;;;;;;;;;17.60;89.20;;;;;;6248758;22;20280;-65
2023/04/27 22:57:20;;;;;;;;;;;17.60;89.20;;;;;;6276063;22;19957;-65
2023/04/27 22:59:50;;;;;;;;;;;17.60;89.20;;;;;;6277870;22;19904;-65
2023/04/27 23:02:17;;;;;;;;;;;17.70;89.10;;;;;;6278548;22;19911;-65
2023/04/27 23:04:43;;;;;;;;;;;17.70;88.40;;;;;;6277806;22;19903;-65
2023/04/27 23:07:10;;;;;;;;;;;17.70;88.40;;;;;;6278543;22;20233;-65
2023/04/27 23:09:37;;;;;;;;;;;17.70;88.40;;;;;;6277941;22;19907;-65
2023/04/27 23:12:06;;;;;;;;;;;17.70;88.10;;;;;;6278278;22;20328;-65
2023/04/27 23:14:33;;;;;;;;;;;17.80;88.20;;;;;;6277715;22;19903;-65
2023/04/27 23:17:00;;;;;;;;;;;17.80;88.20;;;;;;6276114;22;19978;-65
2023/04/27 23:19:30;;;;;;;;;;;17.80;88.00;;;;;;6275676;22;19913;-65
2023/04/27 23:21:57;;;;;;;;;;;17.90;88.20;;;;;;6277273;22;19954;-65
2023/04/27 23:24:23;;;;;;;;;;;18.00;88.00;;;;;;6276901;22;20318;-65
2023/04/27 23:26:50;;;;;;;;;;;18.00;88.10;;;;;;6277093;22;19903;-65
2023/04/27 23:29:17;;;;;;;;;;;18.00;87.70;;;;;;6276226;22;20269;-65
2023/04/27 23:31:43;;;;;;;;;;;18.10;87.50;;;;;;6276943;22;19918;-65
2023/04/27 23:34:10;;;;;;;;;;;18.10;87.50;;;;;;6277145;22;19978;-65
2023/04/27 23:36:37;;;;;;;;;;;18.20;87.30;;;;;;6276876;22;20346;-65
2023/04/27 23:39:04;;;;;;;;;;;18.20;87.10;;;;;;6276582;22;19945;-65
2023/04/27 23:41:30;;;;;;;;;;;18.20;87.10;;;;;;6276960;22;19942;-65
2023/04/27 23:43:57;;;;;;;;;;;18.30;86.90;;;;;;6277246;22;19939;-65
2023/04/27 23:46:24;;;;;;;;;;;18.30;86.70;;;;;;6277317;22;19930;-65
2023/04/27 23:48:51;;;;;;;;;;;18.30;86.60;;;;;;6277730;22;19907;-65
2023/04/27 23:51:17;;;;;;;;;;;18.40;86.40;;;;;;6277278;22;20274;-65
2023/04/27 23:53:44;;;;;;;;;;;18.40;86.30;;;;;;6275432;22;19907;-64
2023/04/27 23:56:19;;;;;;;;;;;18.50;86.30;;;;;;6275125;22;19907;-65
2023/04/27 23:58:46;;;;;;;;;;;18.50;86.20;;;;;;6275885;22;19966;-65
